Time;durP1;ratioP1;P1;durP2;ratioP2;P2;SDS_P1;SDS_P2;PMS_P1;PMS_P2;Temp;Humidity;BMP_temperature;BMP_pressure;BME280_temperature;BME280_humidity;BME280_pressure;Samples;Min_cycle;Max_cycle;Signal;HPM_P1;HPM_P2
2021/08/15 00:00:56;;;;;;;5.25;3.53;;;22.30;60.70;;;;;;4904238;29;20115;-77
2021/08/15 00:03:22;;;;;;;5.45;3.50;;;22.20;60.70;;;;;;4904047;29;20032;-77
2021/08/15 00:05:48;;;;;;;6.03;3.58;;;22.20;60.70;;;;;;4904506;29;20039;-77
2021/08/15 00:08:14;;;;;;;5.22;3.28;;;22.20;60.70;;;;;;4919413;29;20036;-77
2021/08/15 00:10:39;;;;;;;4.78;3.28;;;22.10;60.70;;;;;;4919555;29;20037;-78
2021/08/15 00:13:08;;;;;;;6.18;3.80;;;22.10;60.70;;;;;;4904110;29;20039;-79
2021/08/15 00:15:34;;;;;;;4.60;3.22;;;22.10;60.80;;;;;;4919297;29;20388;-77
2021/08/15 00:18:00;;;;;;;4.82;3.15;;;22.10;60.80;;;;;;4919469;29;20040;-77
2021/08/15 00:20:26;;;;;;;4.95;3.35;;;22.10;60.90;;;;;;4920769;29;20452;-77
2021/08/15 00:22:52;;;;;;;5.88;3.85;;;22.00;60.90;;;;;;4903991;29;20036;-77
2021/08/15 00:25:18;;;;;;;5.70;3.80;;;22.00;61.00;;;;;;4918834;29;20084;-77
2021/08/15 00:27:45;;;;;;;6.28;3.67;;;22.00;61.60;;;;;;4903708;29;20090;-78
2021/08/15 00:30:11;;;;;;;5.28;3.47;;;22.00;61.00;;;;;;4903694;29;20521;-78
2021/08/15 00:32:38;;;;;;;5.25;3.33;;;22.00;61.00;;;;;;4919322;29;20075;-78
2021/08/15 00:35:06;;;;;;;5.20;3.25;;;21.90;61.10;;;;;;4903339;29;20068;-77
2021/08/15 00:37:32;;;;;;;4.88;3.25;;;21.90;61.10;;;;;;4934908;29;20024;-77
2021/08/15 00:39:58;;;;;;;5.93;3.58;;;21.90;61.10;;;;;;4903364;29;20041;-78
2021/08/15 00:42:24;;;;;;;4.97;3.25;;;21.90;61.10;;;;;;4920557;29;20404;-77
2021/08/15 00:44:49;;;;;;;5.70;3.38;;;21.90;61.20;;;;;;4918944;29;20102;-78
2021/08/15 00:47:15;;;;;;;4.85;3.25;;;21.90;61.20;;;;;;4919468;29;20054;-77
2021/08/15 00:49:41;;;;;;;5.68;3.75;;;21.80;61.20;;;;;;4918619;29;20099;-77
2021/08/15 00:52:07;;;;;;;5.70;3.58;;;21.80;61.20;;;;;;4920734;29;20044;-78
2021/08/15 00:54:34;;;;;;;5.65;3.70;;;21.80;61.30;;;;;;4903351;29;20115;-77
2021/08/15 00:57:01;;;;;;;5.95;3.90;;;21.80;61.30;;;;;;4920240;29;20024;-78
2021/08/15 00:59:27;;;;;;;5.60;3.72;;;21.70;61.30;;;;;;4919009;29;20532;-77
2021/08/15 01:01:54;;;;;;;5.20;3.75;;;21.80;61.30;;;;;;4903160;29;20047;-77
2021/08/15 01:04:25;;;;;;;5.03;3.53;;;21.70;61.30;;;;;;4902988;29;20393;-78
2021/08/15 01:06:51;;;;;;;5.32;3.40;;;21.70;61.40;;;;;;4918981;29;20039;-77
2021/08/15 01:09:17;;;;;;;5.68;3.67;;;21.70;61.40;;;;;;4903079;29;20052;-78
2021/08/15 01:11:43;;;;;;;6.20;3.63;;;21.60;61.40;;;;;;4902872;29;20039;-77
2021/08/15 01:14:09;;;;;;;5.68;3.60;;;21.70;61.60;;;;;;4918536;29;20034;-78
2021/08/15 01:16:39;;;;;;;5.53;3.53;;;21.60;61.50;;;;;;4918169;29;20033;-77
2021/08/15 01:19:09;;;;;;;5.55;3.45;;;21.60;61.60;;;;;;4902694;29;20042;-77
2021/08/15 01:21:36;;;;;;;5.22;3.50;;;21.60;61.60;;;;;;4903304;29;20359;-78
2021/08/15 01:24:04;;;;;;;5.70;3.67;;;21.60;61.60;;;;;;4918351;29;20563;-77
2021/08/15 01:26:30;;;;;;;5.50;3.60;;;21.50;61.60;;;;;;4920019;29;20135;-78
2021/08/15 01:28:56;;;;;;;5.57;3.38;;;21.60;61.70;;;;;;4919060;29;20408;-77
2021/08/15 01:31:22;;;;;;;4.35;3.22;;;21.50;61.70;;;;;;4902563;29;20039;-78
2021/08/15 01:33:48;;;;;;;4.85;3.50;;;21.50;61.70;;;;;;4918815;29;20032;-77
2021/08/15 01:36:16;;;;;;;5.25;3.70;;;21.50;61.70;;;;;;4903154;29;20067;-78
2021/08/15 01:38:43;;;;;;;4.97;3.60;;;21.50;61.80;;;;;;4918542;29;20071;-77
2021/08/15 01:41:10;;;;;;;5.22;3.35;;;21.50;61.90;;;;;;4919439;29;20043;-78
2021/08/15 01:43:53;;;;;;;4.75;3.17;;;21.50;61.90;;;;;;4918820;29;20473;-77
2021/08/15 01:46:21;;;;;;;4.70;3.20;;;21.50;62.00;;;;;;4902062;29;20036;-77
2021/08/15 01:48:47;;;;;;;5.10;3.67;;;21.40;61.90;;;;;;4917716;29;20036;-77
2021/08/15 01:51:17;;;;;;;4.75;3.28;;;21.40;61.90;;;;;;4917531;29;20032;-77
2021/08/15 01:53:44;;;;;;;5.22;3.20;;;21.40;62.00;;;;;;4917762;29;20071;-77
2021/08/15 01:56:10;;;;;;;5.60;3.30;;;21.40;62.00;;;;;;4919453;29;20044;-77
2021/08/15 01:58:36;;;;;;;5.57;3.17;;;21.40;62.00;;;;;;4902115;29;20126;-78
2021/08/15 02:01:01;;;;;;;6.03;3.50;;;21.40;62.00;;;;;;4917641;29;20494;-78
2021/08/15 02:03:27;;;;;;;5.15;3.53;;;21.30;62.00;;;;;;4918506;29;20422;-77
2021/08/15 02:05:53;;;;;;;5.05;3.33;;;21.30;62.10;;;;;;4902498;29;20447;-77
2021/08/15 02:08:19;;;;;;;4.63;3.13;;;21.30;62.10;;;;;;4917456;29;20047;-77
2021/08/15 02:10:45;;;;;;;5.55;3.40;;;21.30;62.20;;;;;;4917279;29;20111;-77
2021/08/15 02:13:10;;;;;;;5.15;3.33;;;21.30;62.20;;;;;;4917441;29;20565;-77
2021/08/15 02:15:36;;;;;;;4.80;3.13;;;21.30;62.20;;;;;;4901377;29;20060;-77
2021/08/15 02:18:03;;;;;;;5.35;3.50;;;21.20;62.30;;;;;;4902302;29;20075;-77
2021/08/15 02:20:32;;;;;;;5.50;3.03;;;21.30;62.30;;;;;;4918673;29;20059;-78
2021/08/15 02:22:58;;;;;;;4.80;3.47;;;21.20;62.30;;;;;;4916933;29;20095;-77
2021/08/15 02:25:25;;;;;;;5.70;3.15;;;21.20;62.30;;;;;;4918400;29;20072;-77
2021/08/15 02:27:50;;;;;;;4.57;3.00;;;21.20;62.40;;;;;;4917078;29;20482;-77
2021/08/15 02:30:18;;;;;;;5.50;3.30;;;21.20;62.40;;;;;;4917064;29;20088;-77
2021/08/15 02:32:44;;;;;;;4.80;3.13;;;21.20;62.50;;;;;;4917108;29;20482;-78
2021/08/15 02:35:12;;;;;;;4.85;3.10;;;21.20;62.50;;;;;;4901297;29;20052;-77
2021/08/15 02:37:38;;;;;;;4.90;3.22;;;21.20;62.50;;;;;;4901439;29;20087;-78
2021/08/15 02:40:06;;;;;;;4.63;2.90;;;21.10;62.50;;;;;;4901345;29;20119;-77
2021/08/15 02:42:34;;;;;;;4.95;3.08;;;21.20;62.60;;;;;;4901110;29;20036;-77
2021/08/15 02:45:00;;;;;;;5.00;3.40;;;21.10;62.60;;;;;;4916430;29;20118;-78
2021/08/15 02:47:26;;;;;;;4.82;3.15;;;21.10;62.60;;;;;;4918267;29;20075;-77
2021/08/15 02:49:52;;;;;;;4.40;3.00;;;21.10;62.60;;;;;;4901161;29;20505;-77
2021/08/15 02:52:18;;;;;;;5.15;3.13;;;21.10;62.60;;;;;;4932764;29;20032;-77
2021/08/15 02:54:44;;;;;;;4.30;3.00;;;21.00;62.60;;;;;;4916815;29;20485;-77
2021/08/15 02:57:10;;;;;;;5.05;3.42;;;21.10;62.70;;;;;;4918176;29;20039;-77
2021/08/15 02:59:42;;;;;;;5.55;3.10;;;21.00;62.70;;;;;;4916926;29;20040;-77
2021/08/15 03:02:09;;;;;;;4.72;3.25;;;21.00;62.80;;;;;;4917495;29;20117;-77
2021/08/15 03:04:36;;;;;;;5.10;2.92;;;21.00;62.70;;;;;;4916195;29;20043;-77
2021/08/15 03:07:02;;;;;;;4.40;3.03;;;21.00;62.80;;;;;;4900616;29;20032;-77
2021/08/15 03:09:28;;;;;;;3.78;2.60;;;21.00;62.90;;;;;;4916090;29;20040;-77
2021/08/15 03:11:53;;;;;;;5.25;3.30;;;21.00;62.80;;;;;;4916777;29;20043;-77
2021/08/15 03:14:19;;;;;;;5.15;3.00;;;20.90;62.80;;;;;;4900494;29;20136;-77
2021/08/15 03:16:45;;;;;;;4.88;3.17;;;21.00;62.80;;;;;;4900550;29;20042;-77
2021/08/15 03:19:11;;;;;;;4.13;2.75;;;20.90;62.80;;;;;;4900644;29;20393;-78
2021/08/15 03:21:38;;;;;;;4.93;3.03;;;20.90;62.80;;;;;;4900566;29;20040;-77
2021/08/15 03:24:04;;;;;;;4.53;2.70;;;20.90;62.80;;;;;;4916669;29;20055;-78
2021/08/15 03:26:31;;;;;;;4.45;2.85;;;20.90;62.80;;;;;;4916314;29;20052;-77
2021/08/15 03:28:57;;;;;;;4.18;2.60;;;20.80;62.80;;;;;;4900603;29;20445;-77
2021/08/15 03:31:23;;;;;;;4.40;2.90;;;20.80;62.90;;;;;;4916507;29;20068;-77
2021/08/15 03:33:49;;;;;;;3.92;2.70;;;20.90;62.90;;;;;;4900488;29;20051;-77
2021/08/15 03:36:15;;;;;;;4.00;2.70;;;20.80;63.00;;;;;;4917143;29;20040;-78
2021/08/15 03:38:40;;;;;;;5.45;2.80;;;20.80;62.90;;;;;;4916209;29;20031;-77
2021/08/15 03:41:06;;;;;;;4.80;2.95;;;20.80;62.90;;;;;;4901010;29;20342;-77
2021/08/15 03:43:32;;;;;;;3.95;2.90;;;20.80;63.00;;;;;;4917567;29;20039;-77
2021/08/15 03:45:58;;;;;;;4.40;2.85;;;20.70;63.00;;;;;;4916439;29;20046;-77
2021/08/15 03:48:23;;;;;;;4.43;2.80;;;20.70;63.10;;;;;;4916030;29;20393;-77
2021/08/15 03:50:49;;;;;;;5.47;3.00;;;20.70;63.00;;;;;;4900540;29;20123;-77
2021/08/15 03:53:15;;;;;;;4.70;2.90;;;20.70;63.10;;;;;;4916665;29;20119;-77
2021/08/15 03:55:41;;;;;;;4.55;2.72;;;20.70;63.10;;;;;;4932598;29;20028;-77
2021/08/15 03:58:06;;;;;;;4.40;2.72;;;20.70;63.10;;;;;;4900508;29;20043;-77
2021/08/15 04:00:33;;;;;;;3.70;2.40;;;20.60;63.10;;;;;;4915974;29;20064;-77
2021/08/15 04:02:58;;;;;;;4.13;2.72;;;20.60;63.10;;;;;;4915643;29;20032;-77
2021/08/15 04:05:24;;;;;;;4.53;2.88;;;20.60;63.20;;;;;;4916000;29;20036;-77
2021/08/15 04:07:50;;;;;;;3.92;2.53;;;20.60;63.30;;;;;;4900137;29;20032;-77
2021/08/15 04:10:15;;;;;;;3.78;2.67;;;20.60;63.30;;;;;;4916153;29;20044;-77
2021/08/15 04:12:41;;;;;;;4.82;2.75;;;20.60;63.20;;;;;;4915924;29;20024;-78
2021/08/15 04:15:08;;;;;;;4.15;2.80;;;20.60;63.40;;;;;;4900152;29;20499;-77
2021/08/15 04:17:34;;;;;;;4.60;2.60;;;20.50;63.30;;;;;;4915996;29;20038;-77
2021/08/15 04:20:00;;;;;;;3.92;2.63;;;20.50;63.30;;;;;;4915890;29;20134;-77
2021/08/15 04:22:26;;;;;;;3.88;2.58;;;20.50;63.40;;;;;;4900188;29;20042;-77
2021/08/15 04:24:51;;;;;;;5.20;3.08;;;20.50;63.40;;;;;;4916754;29;20044;-77
2021/08/15 04:27:17;;;;;;;4.53;2.70;;;20.40;63.30;;;;;;4902936;29;20092;-77
2021/08/15 04:29:43;;;;;;;5.70;3.03;;;20.50;63.40;;;;;;4920491;29;20128;-77
2021/08/15 04:32:09;;;;;;;3.97;2.53;;;20.40;63.40;;;;;;4922433;29;20051;-78
2021/08/15 04:34:35;;;;;;;4.38;2.75;;;20.40;63.40;;;;;;4924734;29;20043;-78
2021/08/15 04:37:01;;;;;;;3.83;2.65;;;20.40;63.50;;;;;;4924312;29;20019;-78
2021/08/15 04:39:27;;;;;;;3.42;2.30;;;20.40;63.50;;;;;;4924661;29;20055;-77
2021/08/15 04:41:53;;;;;;;4.18;2.72;;;20.40;63.50;;;;;;4935437;29;20036;-77
2021/08/15 04:44:19;;;;;;;5.07;2.97;;;20.30;63.50;;;;;;4904186;29;20389;-78
2021/08/15 04:46:44;;;;;;;3.50;2.38;;;20.40;63.60;;;;;;4904317;29;20466;-77
2021/08/15 04:49:10;;;;;;;4.32;2.65;;;20.40;63.60;;;;;;4906024;29;20045;-78
2021/08/15 04:51:36;;;;;;;3.63;2.38;;;20.40;63.60;;;;;;4903981;29;20044;-77
2021/08/15 04:54:02;;;;;;;5.28;2.80;;;20.30;63.70;;;;;;4903725;29;20032;-79
2021/08/15 04:56:27;;;;;;;3.78;2.63;;;20.30;63.70;;;;;;4904098;29;20378;-79
2021/08/15 04:58:53;;;;;;;4.40;3.10;;;20.30;63.70;;;;;;4903207;29;20033;-77
2021/08/15 05:01:19;;;;;;;3.47;2.38;;;20.30;63.70;;;;;;4918721;29;20088;-76
2021/08/15 05:03:44;;;;;;;4.50;2.65;;;20.30;63.70;;;;;;4918652;29;20546;-77
2021/08/15 05:06:10;;;;;;;4.63;2.95;;;20.30;63.80;;;;;;4903373;29;20042;-78
2021/08/15 05:08:36;;;;;;;5.18;2.92;;;20.20;63.80;;;;;;4918541;29;20072;-77
2021/08/15 05:11:01;;;;;;;3.95;2.63;;;20.20;63.80;;;;;;4918631;29;20045;-77
2021/08/15 05:13:28;;;;;;;4.50;2.83;;;20.20;63.80;;;;;;4918534;29;20028;-78
2021/08/15 05:15:54;;;;;;;5.25;3.30;;;20.20;63.90;;;;;;4934341;29;20066;-77
2021/08/15 05:18:21;;;;;;;4.78;3.15;;;20.20;64.00;;;;;;4918792;29;20075;-78
2021/08/15 05:20:46;;;;;;;3.80;2.70;;;20.20;64.00;;;;;;4918391;29;20028;-77
2021/08/15 05:23:12;;;;;;;4.20;2.78;;;20.20;64.00;;;;;;4918504;29;20040;-78
2021/08/15 05:25:38;;;;;;;4.20;2.80;;;20.20;64.00;;;;;;4918060;29;20056;-78
2021/08/15 05:28:05;;;;;;;3.83;2.63;;;20.20;64.10;;;;;;4902523;29;20032;-78
2021/08/15 05:30:32;;;;;;;4.50;2.78;;;20.20;64.10;;;;;;4918476;29;20145;-78
2021/08/15 05:32:58;;;;;;;4.72;2.85;;;20.20;64.10;;;;;;4902765;29;20481;-77
2021/08/15 05:35:23;;;;;;;4.07;2.83;;;20.20;64.10;;;;;;4902252;29;20039;-77
2021/08/15 05:37:49;;;;;;;3.85;2.58;;;20.20;64.10;;;;;;4901650;29;20119;-77
2021/08/15 05:40:15;;;;;;;5.03;3.13;;;20.20;64.10;;;;;;4917978;29;20028;-77
2021/08/15 05:42:41;;;;;;;4.07;2.97;;;20.20;64.10;;;;;;4918305;29;20474;-77
2021/08/15 05:45:08;;;;;;;4.38;3.00;;;20.20;64.20;;;;;;4918204;29;20111;-77
2021/08/15 05:47:33;;;;;;;3.90;2.88;;;20.20;64.20;;;;;;4902704;29;20059;-79
2021/08/15 05:49:59;;;;;;;4.50;3.03;;;20.20;64.30;;;;;;4902054;29;20469;-77
2021/08/15 05:52:26;;;;;;;4.18;2.78;;;20.20;64.30;;;;;;4917548;29;20458;-77
2021/08/15 05:54:52;;;;;;;5.45;3.22;;;20.20;64.30;;;;;;4886583;29;20028;-77
2021/08/15 05:57:18;;;;;;;4.13;2.85;;;20.20;64.30;;;;;;4901984;29;20024;-77
2021/08/15 05:59:44;;;;;;;5.10;3.10;;;20.20;64.30;;;;;;4902704;29;20036;-78
2021/08/15 06:02:10;;;;;;;4.85;3.30;;;20.20;64.30;;;;;;4917636;29;20091;-77
2021/08/15 06:04:36;;;;;;;4.82;3.20;;;20.10;64.30;;;;;;4918508;29;20485;-77
2021/08/15 06:07:02;;;;;;;5.32;3.60;;;20.20;64.40;;;;;;4902072;29;20043;-77
2021/08/15 06:09:28;;;;;;;5.25;3.45;;;20.20;64.40;;;;;;4918710;29;20032;-78
2021/08/15 06:11:54;;;;;;;4.72;3.40;;;20.20;64.40;;;;;;4901777;29;20183;-77
2021/08/15 06:14:19;;;;;;;5.35;3.08;;;20.20;64.40;;;;;;4917451;29;20039;-78
2021/08/15 06:16:45;;;;;;;4.28;3.05;;;20.20;64.40;;;;;;4918540;29;20043;-77
2021/08/15 06:19:12;;;;;;;4.70;3.20;;;20.20;64.50;;;;;;4918426;29;20032;-77
2021/08/15 06:21:38;;;;;;;4.72;3.35;;;20.20;64.50;;;;;;4916922;29;20047;-78
2021/08/15 06:24:04;;;;;;;4.75;3.35;;;20.20;64.50;;;;;;4917079;29;20032;-77
2021/08/15 06:26:30;;;;;;;5.10;3.35;;;20.20;65.10;;;;;;4901362;29;20052;-78
2021/08/15 06:28:55;;;;;;;5.82;3.75;;;20.20;64.50;;;;;;4901533;29;20533;-77
2021/08/15 06:31:22;;;;;;;5.03;3.33;;;20.20;64.60;;;;;;4901098;29;20043;-77
2021/08/15 06:33:48;;;;;;;4.93;3.45;;;20.20;64.50;;;;;;4917989;29;20080;-78
2021/08/15 06:36:14;;;;;;;5.28;3.45;;;20.20;64.50;;;;;;4901306;29;20426;-77
2021/08/15 06:38:40;;;;;;;4.97;3.50;;;20.20;64.50;;;;;;4901243;29;20412;-78
2021/08/15 06:41:06;;;;;;;4.30;3.03;;;20.20;64.50;;;;;;4901190;29;20040;-77
2021/08/15 06:43:32;;;;;;;4.97;3.55;;;20.30;64.60;;;;;;4917053;29;20032;-77
2021/08/15 06:45:58;;;;;;;5.35;3.70;;;20.30;64.60;;;;;;4916691;29;20047;-78
2021/08/15 06:48:23;;;;;;;4.85;3.42;;;20.30;64.60;;;;;;4917001;29;20064;-77
2021/08/15 06:50:54;;;;;;;5.60;3.63;;;20.30;64.60;;;;;;4917322;29;20064;-77
2021/08/15 06:53:23;;;;;;;5.13;3.50;;;20.30;64.60;;;;;;4901824;29;20032;-77
2021/08/15 06:55:49;;;;;;;4.53;3.33;;;20.30;64.60;;;;;;4916791;29;20034;-77
2021/08/15 06:58:16;;;;;;;4.43;2.88;;;20.40;64.70;;;;;;4932481;29;20028;-77
2021/08/15 07:00:43;;;;;;;4.93;3.40;;;20.30;64.70;;;;;;4917769;29;20476;-77
2021/08/15 07:03:09;;;;;;;4.95;3.20;;;20.40;64.70;;;;;;4917337;29;20032;-77
2021/08/15 07:05:35;;;;;;;4.55;3.25;;;20.40;64.70;;;;;;4916394;29;20035;-78
2021/08/15 07:08:01;;;;;;;4.60;3.33;;;20.40;64.70;;;;;;4916151;29;20085;-77
2021/08/15 07:10:29;;;;;;;5.43;3.65;;;20.40;64.70;;;;;;4900686;29;20123;-77
2021/08/15 07:12:55;;;;;;;4.90;3.33;;;20.40;64.70;;;;;;4916470;29;20036;-77
2021/08/15 07:15:31;;;;;;;5.20;3.47;;;20.40;64.70;;;;;;4901257;29;20381;-77
2021/08/15 07:17:57;;;;;;;6.07;3.67;;;20.40;64.70;;;;;;4917900;29;20028;-78
2021/08/15 07:20:23;;;;;;;4.07;3.00;;;20.40;64.70;;;;;;4917303;29;20065;-77
2021/08/15 07:22:50;;;;;;;4.97;3.80;;;20.50;64.70;;;;;;4900454;29;20469;-78
2021/08/15 07:25:17;;;;;;;5.55;3.47;;;20.50;64.70;;;;;;4917572;29;20055;-78
2021/08/15 07:27:43;;;;;;;4.47;3.35;;;20.50;64.70;;;;;;4917759;29;20501;-78
2021/08/15 07:30:10;;;;;;;4.60;3.28;;;20.50;64.70;;;;;;4900761;29;20105;-77
2021/08/15 07:32:47;;;;;;;5.20;3.60;;;20.50;64.70;;;;;;4900344;29;20118;-77
2021/08/15 07:35:13;;;;;;;5.28;3.53;;;20.60;64.70;;;;;;4916238;29;20032;-77
2021/08/15 07:37:38;;;;;;;5.75;3.22;;;20.60;64.60;;;;;;4900817;29;20032;-77
2021/08/15 07:40:05;;;;;;;4.72;3.15;;;20.60;64.60;;;;;;4915999;29;20040;-78
2021/08/15 07:42:30;;;;;;;4.53;3.22;;;20.60;64.60;;;;;;4916304;29;20092;-77
2021/08/15 07:44:56;;;;;;;4.45;3.38;;;20.60;64.60;;;;;;4900746;29;20036;-79
2021/08/15 07:47:22;;;;;;;5.50;3.72;;;20.70;64.70;;;;;;4900592;29;20394;-77
2021/08/15 07:49:47;;;;;;;5.30;3.20;;;20.70;64.70;;;;;;4900429;29;20136;-77
2021/08/15 07:52:13;;;;;;;3.95;2.97;;;20.70;64.60;;;;;;4900561;29;20028;-78
2021/08/15 07:54:39;;;;;;;4.25;3.13;;;20.80;64.80;;;;;;4916384;29;20373;-78
2021/08/15 07:57:04;;;;;;;4.63;3.17;;;20.80;64.70;;;;;;4916027;29;20036;-78
2021/08/15 07:59:30;;;;;;;4.90;3.40;;;20.80;64.60;;;;;;4900321;29;20120;-78
2021/08/15 08:01:56;;;;;;;4.80;3.08;;;20.80;64.60;;;;;;4902959;29;20040;-77
2021/08/15 08:04:21;;;;;;;5.13;3.40;;;20.80;64.60;;;;;;4904017;29;20040;-79
2021/08/15 08:06:48;;;;;;;5.35;3.35;;;20.80;64.50;;;;;;4903936;29;20032;-78
2021/08/15 08:09:14;;;;;;;4.25;2.97;;;20.90;64.50;;;;;;4919741;29;20076;-77
2021/08/15 08:11:39;;;;;;;4.03;2.80;;;20.90;64.50;;;;;;4919506;29;20067;-78
2021/08/15 08:14:05;;;;;;;3.92;2.83;;;21.00;64.40;;;;;;4920217;29;20036;-78
2021/08/15 08:16:31;;;;;;;4.38;2.80;;;21.00;64.40;;;;;;4920190;29;20071;-78
2021/08/15 08:18:56;;;;;;;4.55;3.05;;;21.00;64.30;;;;;;4903607;29;20039;-78
2021/08/15 08:21:22;;;;;;;4.35;2.97;;;21.00;64.20;;;;;;4903737;29;20451;-78
2021/08/15 08:23:48;;;;;;;4.63;3.10;;;21.10;64.20;;;;;;4903608;29;20028;-77
2021/08/15 08:26:13;;;;;;;4.28;2.80;;;21.20;64.20;;;;;;4919218;29;20398;-77
2021/08/15 08:28:39;;;;;;;4.35;3.08;;;21.20;64.10;;;;;;4918927;29;20048;-77
2021/08/15 08:31:05;;;;;;;4.93;3.03;;;21.30;64.00;;;;;;4903760;29;20550;-77
2021/08/15 08:33:30;;;;;;;3.75;2.63;;;21.30;63.90;;;;;;4920637;29;20033;-77
2021/08/15 08:35:57;;;;;;;4.50;2.72;;;21.40;63.90;;;;;;4920289;29;20124;-77
2021/08/15 08:38:23;;;;;;;4.63;2.95;;;21.40;63.90;;;;;;4903799;29;20373;-78
2021/08/15 08:40:49;;;;;;;3.95;2.60;;;21.50;63.80;;;;;;4903374;29;20032;-77
2021/08/15 08:43:19;;;;;;;4.30;3.00;;;21.50;63.80;;;;;;4919767;29;20358;-77
2021/08/15 08:45:46;;;;;;;4.03;2.88;;;21.60;63.80;;;;;;4919769;29;20575;-78
2021/08/15 08:48:12;;;;;;;5.20;2.90;;;21.60;63.70;;;;;;4919119;29;20035;-77
2021/08/15 08:50:38;;;;;;;4.28;2.88;;;21.70;63.70;;;;;;4903333;29;20036;-77
2021/08/15 08:53:04;;;;;;;4.88;2.80;;;21.70;63.60;;;;;;4904078;29;20036;-77
2021/08/15 08:55:30;;;;;;;3.45;2.38;;;21.80;63.60;;;;;;4919334;29;20495;-77
2021/08/15 08:57:56;;;;;;;3.60;2.50;;;21.80;63.50;;;;;;4918471;29;20028;-78
2021/08/15 09:00:22;;;;;;;4.75;2.60;;;21.90;63.50;;;;;;4902918;29;20529;-79
2021/08/15 09:02:47;;;;;;;3.85;2.47;;;21.90;63.40;;;;;;4902754;29;20053;-77
2021/08/15 09:05:13;;;;;;;5.03;2.80;;;22.00;63.40;;;;;;4918566;29;20127;-77
2021/08/15 09:07:41;;;;;;;5.47;2.63;;;22.10;63.40;;;;;;4918362;29;20036;-78
2021/08/15 09:10:10;;;;;;;3.60;2.38;;;22.10;63.40;;;;;;4918140;29;20044;-78
2021/08/15 09:12:45;;;;;;;3.85;2.50;;;22.20;63.40;;;;;;4901338;29;20405;-78
2021/08/15 09:15:22;;;;;;;4.03;2.67;;;22.20;63.30;;;;;;4919969;29;20036;-78
2021/08/15 09:17:49;;;;;;;3.72;2.38;;;22.30;63.30;;;;;;4919677;29;20124;-78
2021/08/15 09:20:35;;;;;;;4.30;2.65;;;22.30;63.20;;;;;;4919850;29;20088;-78
2021/08/15 09:23:21;;;;;;;3.63;2.20;;;22.40;63.20;;;;;;4919078;29;20028;-77
2021/08/15 09:25:46;;;;;;;3.95;2.33;;;22.40;63.30;;;;;;4902237;29;20056;-77
2021/08/15 09:28:13;;;;;;;3.95;2.40;;;22.50;63.10;;;;;;4918099;29;20035;-77
2021/08/15 09:30:39;;;;;;;4.05;2.47;;;22.50;63.10;;;;;;4902677;29;20100;-77
2021/08/15 09:33:07;;;;;;;4.65;2.70;;;22.60;63.10;;;;;;4918123;29;20025;-78
2021/08/15 09:35:42;;;;;;;4.05;2.63;;;22.60;63.10;;;;;;4902558;29;20024;-78
2021/08/15 09:38:16;;;;;;;3.80;2.40;;;22.70;63.20;;;;;;4902890;29;20043;-78
2021/08/15 09:40:43;;;;;;;3.80;2.30;;;22.80;63.80;;;;;;4902442;29;20044;-78
2021/08/15 09:43:30;;;;;;;5.32;2.60;;;22.90;63.10;;;;;;4918921;29;20430;-78
2021/08/15 09:46:00;;;;;;;3.95;2.50;;;22.90;63.20;;;;;;4919571;29;20103;-78
2021/08/15 09:48:28;;;;;;;4.10;2.35;;;23.10;63.20;;;;;;4902310;29;20382;-78
2021/08/15 09:51:06;;;;;;;4.30;2.38;;;23.10;63.10;;;;;;4917974;29;20465;-77
2021/08/15 09:53:34;;;;;;;3.92;2.55;;;23.20;63.30;;;;;;4903033;29;20032;-78
2021/08/15 09:56:00;;;;;;;4.15;2.40;;;23.30;63.10;;;;;;4902440;29;20119;-77
2021/08/15 09:58:26;;;;;;;3.55;2.10;;;23.40;63.10;;;;;;4918887;29;20067;-78
2021/08/15 10:00:53;;;;;;;3.83;2.40;;;23.50;63.10;;;;;;4917704;29;20497;-78
2021/08/15 10:03:19;;;;;;;4.10;2.40;;;23.50;63.00;;;;;;4918482;29;20480;-77
2021/08/15 10:05:45;;;;;;;3.33;2.00;;;23.60;63.00;;;;;;4917281;29;20029;-78
2021/08/15 10:08:11;;;;;;;2.90;2.08;;;23.70;63.00;;;;;;4901642;29;20036;-78
2021/08/15 10:10:38;;;;;;;3.25;1.98;;;23.80;62.90;;;;;;4901972;29;20474;-78
2021/08/15 10:13:05;;;;;;;3.75;2.22;;;23.90;62.90;;;;;;4917714;29;20059;-77
2021/08/15 10:15:33;;;;;;;3.25;2.17;;;24.00;62.80;;;;;;4917405;29;20051;-78
2021/08/15 10:18:02;;;;;;;3.85;2.20;;;24.10;62.70;;;;;;4901600;29;20072;-78
2021/08/15 10:20:29;;;;;;;4.13;2.42;;;24.20;62.80;;;;;;4917088;29;20111;-80
2021/08/15 10:23:12;;;;;;;3.63;2.20;;;24.20;62.60;;;;;;4917058;29;20451;-78
2021/08/15 10:25:43;;;;;;;2.83;2.00;;;24.30;62.80;;;;;;4917787;29;20052;-78
2021/08/15 10:28:27;;;;;;;2.90;2.05;;;24.40;62.60;;;;;;4917430;29;20056;-77
2021/08/15 10:30:54;;;;;;;2.58;1.70;;;24.50;62.70;;;;;;4901625;29;20469;-77
2021/08/15 10:33:21;;;;;;;3.15;1.88;;;24.60;62.50;;;;;;4917025;29;20129;-77
2021/08/15 10:36:24;;;;;;;3.35;1.88;;;24.70;62.50;;;;;;4918314;29;20032;-77
2021/08/15 10:38:52;;;;;;;2.33;1.67;;;24.80;62.60;;;;;;4918500;29;20126;-77
2021/08/15 10:41:47;;;;;;;2.85;1.73;;;24.90;62.40;;;;;;4901121;29;20036;-78
2021/08/15 10:44:16;;;;;;;2.92;1.92;;;24.90;62.50;;;;;;4914473;29;20525;-77
2021/08/15 10:47:12;;;;;;;3.30;1.90;;;25.10;62.30;;;;;;4902076;29;20024;-77
2021/08/15 10:49:50;;;;;;;2.90;1.75;;;25.10;62.50;;;;;;4901156;29;20048;-77
2021/08/15 10:52:37;;;;;;;3.08;1.83;;;25.30;62.40;;;;;;4916624;29;20036;-76
2021/08/15 10:55:15;;;;;;;2.13;1.42;;;25.30;62.40;;;;;;4916617;29;20035;-77
2021/08/15 10:57:52;;;;;;;3.47;1.90;;;25.40;62.30;;;;;;4917068;29;20039;-76
2021/08/15 11:00:38;;;;;;;3.38;1.80;;;25.60;62.40;;;;;;4916881;29;20537;-76
2021/08/15 11:03:29;;;;;;;1.98;1.50;;;25.60;62.50;;;;;;4900779;29;20032;-76
2021/08/15 11:05:56;;;;;;;3.00;1.70;;;25.70;62.60;;;;;;4913203;29;20095;-77
2021/08/15 11:08:31;;;;;;;2.28;1.83;;;25.80;62.50;;;;;;4916737;29;20040;-77
2021/08/15 11:11:09;;;;;;;2.70;1.60;;;25.80;62.60;;;;;;4900676;29;20092;-76
2021/08/15 11:13:35;;;;;;;2.58;1.63;;;25.90;62.80;;;;;;4917239;29;20039;-77
2021/08/15 11:16:43;;;;;;;2.47;1.60;;;26.00;62.80;;;;;;4901032;29;20028;-77
2021/08/15 11:19:12;;;;;;;2.30;1.45;;;26.10;63.10;;;;;;4914669;29;20132;-76
2021/08/15 11:22:01;;;;;;;2.75;1.70;;;26.20;63.00;;;;;;4916163;29;20106;-78
2021/08/15 11:24:28;;;;;;;2.10;1.48;;;26.20;63.40;;;;;;4917796;29;20034;-76
2021/08/15 11:26:54;;;;;;;2.40;1.55;;;26.30;63.30;;;;;;4916050;29;20047;-77
2021/08/15 11:29:21;;;;;;;2.95;1.70;;;26.30;63.50;;;;;;4900711;29;20075;-76
2021/08/15 11:31:47;;;;;;;2.65;1.40;;;26.40;63.70;;;;;;4916673;29;20385;-76
2021/08/15 11:34:13;;;;;;;1.92;1.50;;;26.40;63.80;;;;;;4916502;29;20028;-76
2021/08/15 11:36:39;;;;;;;2.22;1.50;;;26.50;63.90;;;;;;4915371;29;20119;-76
2021/08/15 11:39:06;;;;;;;2.97;1.65;;;26.50;63.90;;;;;;4916467;29;20347;-76
2021/08/15 11:41:36;;;;;;;2.28;1.60;;;26.50;64.00;;;;;;4915909;29;20028;-76
2021/08/15 11:44:03;;;;;;;2.15;1.35;;;26.60;64.10;;;;;;4917352;29;20047;-77
2021/08/15 11:46:29;;;;;;;1.75;1.50;;;26.60;64.10;;;;;;4917820;29;20024;-76
2021/08/15 11:48:55;;;;;;;2.85;1.60;;;26.70;64.20;;;;;;4916755;29;20067;-76
2021/08/15 11:51:20;;;;;;;2.08;1.45;;;26.70;64.20;;;;;;4916058;29;20063;-77
2021/08/15 11:53:47;;;;;;;1.80;1.30;;;26.80;64.30;;;;;;4900739;29;20055;-76
2021/08/15 11:56:21;;;;;;;1.63;1.30;;;26.80;64.30;;;;;;4916096;29;20032;-76
2021/08/15 11:58:53;;;;;;;2.25;1.40;;;26.80;64.40;;;;;;4916362;29;20048;-76
2021/08/15 12:01:22;;;;;;;1.63;1.23;;;26.90;64.50;;;;;;4916227;29;20037;-77
2021/08/15 12:04:02;;;;;;;2.22;1.50;;;26.90;64.50;;;;;;4916197;29;20115;-76
2021/08/15 12:06:29;;;;;;;2.08;1.48;;;27.00;64.80;;;;;;4900573;29;20083;-77
2021/08/15 12:08:55;;;;;;;2.17;1.30;;;27.00;64.60;;;;;;4916010;29;20040;-77
2021/08/15 12:11:29;;;;;;;2.67;1.58;;;27.00;64.70;;;;;;4916153;29;20036;-77
2021/08/15 12:14:07;;;;;;;;;;;27.00;64.70;;;;;;4932323;29;20055;-76
2021/08/15 12:16:33;;;;;;;1.58;1.27;;;27.10;64.50;;;;;;4915788;29;20000;-76
2021/08/15 12:19:00;;;;;;;1.55;1.20;;;27.10;64.40;;;;;;4916732;29;20032;-76
2021/08/15 12:21:32;;;;;;;1.75;1.30;;;27.10;64.60;;;;;;4915679;29;20036;-76
2021/08/15 12:24:18;;;;;;;1.58;1.30;;;27.10;64.70;;;;;;4916109;29;20028;-76
2021/08/15 12:27:05;;;;;;;2.20;1.30;;;27.10;64.70;;;;;;4931168;29;20048;-77
2021/08/15 12:29:34;;;;;;;1.77;1.40;;;27.20;64.70;;;;;;4915445;29;20123;-76
2021/08/15 12:32:03;;;;;;;1.50;1.17;;;27.20;64.50;;;;;;4916633;29;20462;-77
2021/08/15 12:34:29;;;;;;;1.83;1.20;;;27.20;64.50;;;;;;4915722;29;20038;-77
2021/08/15 12:36:56;;;;;;;2.60;1.50;;;27.30;64.50;;;;;;4900131;29;20099;-76
2021/08/15 12:39:28;;;;;;;2.45;1.48;;;27.30;64.40;;;;;;4915511;29;20044;-77
2021/08/15 12:42:01;;;;;;;2.40;1.40;;;27.30;64.40;;;;;;4916079;29;20059;-77
2021/08/15 12:44:30;;;;;;;2.10;1.50;;;27.30;64.30;;;;;;4917606;29;20036;-76
2021/08/15 12:47:15;;;;;;;2.05;1.38;;;27.40;64.30;;;;;;4902335;29;20034;-77
2021/08/15 12:49:46;;;;;;;2.08;1.30;;;27.40;64.40;;;;;;4937449;29;20036;-76
2021/08/15 12:52:11;;;;;;;1.95;1.30;;;27.40;64.20;;;;;;4936357;29;20032;-77